sensor_id;sensor_type;location;lat;lon;timestamp;temperature;humidity
65692;DHT22;52411;52.716;6.696;2022-10-18T00:00:46;13.60;99.90
65692;DHT22;52411;52.716;6.696;2022-10-18T00:03:12;13.60;99.90
65692;DHT22;52411;52.716;6.696;2022-10-18T00:05:37;13.70;99.90
65692;DHT22;52411;52.716;6.696;2022-10-18T00:08:03;13.70;99.90
65692;DHT22;52411;52.716;6.696;2022-10-18T00:10:29;13.80;99.90
65692;DHT22;52411;52.716;6.696;2022-10-18T00:12:55;13.80;99.90
65692;DHT22;52411;52.716;6.696;2022-10-18T00:15:20;13.70;99.90
65692;DHT22;52411;52.716;6.696;2022-10-18T00:17:46;13.80;99.90
65692;DHT22;52411;52.716;6.696;2022-10-18T00:20:13;13.80;99.90
65692;DHT22;52411;52.716;6.696;2022-10-18T00:22:40;13.80;99.90
65692;DHT22;52411;52.716;6.696;2022-10-18T00:25:07;13.80;99.90
65692;DHT22;52411;52.716;6.696;2022-10-18T00:27:33;13.80;99.90
65692;DHT22;52411;52.716;6.696;2022-10-18T00:29:59;13.90;99.90
65692;DHT22;52411;52.716;6.696;2022-10-18T00:32:25;13.90;99.90
65692;DHT22;52411;52.716;6.696;2022-10-18T00:34:51;13.80;99.90
65692;DHT22;52411;52.716;6.696;2022-10-18T00:37:17;13.70;99.90
65692;DHT22;52411;52.716;6.696;2022-10-18T00:39:43;13.80;99.90
65692;DHT22;52411;52.716;6.696;2022-10-18T00:42:18;13.80;99.90
65692;DHT22;52411;52.716;6.696;2022-10-18T00:47:12;13.80;99.90
65692;DHT22;52411;52.716;6.696;2022-10-18T00:49:43;13.80;99.90
65692;DHT22;52411;52.716;6.696;2022-10-18T00:52:20;13.70;99.90
65692;DHT22;52411;52.716;6.696;2022-10-18T00:54:48;13.70;99.90
65692;DHT22;52411;52.716;6.696;2022-10-18T00:57:15;13.70;99.90
65692;DHT22;52411;52.716;6.696;2022-10-18T00:59:42;13.70;99.90
65692;DHT22;52411;52.716;6.696;2022-10-18T01:02:08;13.70;99.90
65692;DHT22;52411;52.716;6.696;2022-10-18T01:04:34;13.70;99.90
65692;DHT22;52411;52.716;6.696;2022-10-18T01:07:09;13.70;99.90
65692;DHT22;52411;52.716;6.696;2022-10-18T01:09:39;13.80;99.90
65692;DHT22;52411;52.716;6.696;2022-10-18T01:12:33;13.80;99.90
65692;DHT22;52411;52.716;6.696;2022-10-18T01:15:18;13.80;99.90
65692;DHT22;52411;52.716;6.696;2022-10-18T01:23:52;13.80;99.90
65692;DHT22;52411;52.716;6.696;2022-10-18T01:27:18;13.80;99.90
65692;DHT22;52411;52.716;6.696;2022-10-18T01:32:16;13.80;99.90
65692;DHT22;52411;52.716;6.696;2022-10-18T01:34:46;13.80;99.90
65692;DHT22;52411;52.716;6.696;2022-10-18T01:37:16;13.80;99.90
65692;DHT22;52411;52.716;6.696;2022-10-18T01:39:45;13.80;99.90
65692;DHT22;52411;52.716;6.696;2022-10-18T01:42:14;13.80;99.90
65692;DHT22;52411;52.716;6.696;2022-10-18T01:44:43;13.70;99.90
65692;DHT22;52411;52.716;6.696;2022-10-18T01:47:12;13.80;99.90
65692;DHT22;52411;52.716;6.696;2022-10-18T01:49:38;13.80;99.90
65692;DHT22;52411;52.716;6.696;2022-10-18T01:52:04;13.70;99.90
65692;DHT22;52411;52.716;6.696;2022-10-18T01:54:38;13.70;99.90
65692;DHT22;52411;52.716;6.696;2022-10-18T02:00:13;13.70;99.90
65692;DHT22;52411;52.716;6.696;2022-10-18T02:02:45;13.70;99.90
65692;DHT22;52411;52.716;6.696;2022-10-18T02:10:34;13.60;99.90
65692;DHT22;52411;52.716;6.696;2022-10-18T02:13:02;13.60;99.90
65692;DHT22;52411;52.716;6.696;2022-10-18T02:15:38;13.50;99.90
65692;DHT22;52411;52.716;6.696;2022-10-18T02:18:26;13.50;99.90
65692;DHT22;52411;52.716;6.696;2022-10-18T02:20:53;13.50;99.90
65692;DHT22;52411;52.716;6.696;2022-10-18T02:23:21;13.50;99.90
65692;DHT22;52411;52.716;6.696;2022-10-18T02:25:48;13.50;99.90
65692;DHT22;52411;52.716;6.696;2022-10-18T02:28:14;13.50;99.90
65692;DHT22;52411;52.716;6.696;2022-10-18T02:31:02;13.40;99.90
65692;DHT22;52411;52.716;6.696;2022-10-18T02:33:50;13.50;99.90
65692;DHT22;52411;52.716;6.696;2022-10-18T02:36:26;13.50;99.90
65692;DHT22;52411;52.716;6.696;2022-10-18T02:38:58;13.50;99.90
65692;DHT22;52411;52.716;6.696;2022-10-18T02:41:26;13.50;99.90
65692;DHT22;52411;52.716;6.696;2022-10-18T02:43:52;13.40;99.90
65692;DHT22;52411;52.716;6.696;2022-10-18T02:46:19;13.40;99.90
65692;DHT22;52411;52.716;6.696;2022-10-18T02:48:45;13.40;99.90
65692;DHT22;52411;52.716;6.696;2022-10-18T02:51:10;13.40;99.90
65692;DHT22;52411;52.716;6.696;2022-10-18T02:53:36;13.40;99.90
65692;DHT22;52411;52.716;6.696;2022-10-18T02:56:02;13.40;99.90
65692;DHT22;52411;52.716;6.696;2022-10-18T02:58:28;13.40;99.90
65692;DHT22;52411;52.716;6.696;2022-10-18T03:00:53;13.30;99.90
65692;DHT22;52411;52.716;6.696;2022-10-18T03:03:19;13.30;99.90
65692;DHT22;52411;52.716;6.696;2022-10-18T03:05:48;13.20;99.90
65692;DHT22;52411;52.716;6.696;2022-10-18T03:08:14;13.20;99.90
65692;DHT22;52411;52.716;6.696;2022-10-18T03:10:42;13.20;99.90
65692;DHT22;52411;52.716;6.696;2022-10-18T03:13:07;13.20;99.90
65692;DHT22;52411;52.716;6.696;2022-10-18T03:15:33;13.20;99.90
65692;DHT22;52411;52.716;6.696;2022-10-18T03:17:58;13.10;99.90
65692;DHT22;52411;52.716;6.696;2022-10-18T03:20:24;13.10;99.90
65692;DHT22;52411;52.716;6.696;2022-10-18T03:22:49;13.00;99.90
65692;DHT22;52411;52.716;6.696;2022-10-18T03:25:15;13.00;99.90
65692;DHT22;52411;52.716;6.696;2022-10-18T03:27:40;13.00;99.90
65692;DHT22;52411;52.716;6.696;2022-10-18T03:30:06;13.00;99.90
65692;DHT22;52411;52.716;6.696;2022-10-18T03:32:33;12.90;99.90
65692;DHT22;52411;52.716;6.696;2022-10-18T03:34:58;13.00;99.90
65692;DHT22;52411;52.716;6.696;2022-10-18T03:37:24;12.90;99.90
65692;DHT22;52411;52.716;6.696;2022-10-18T03:39:49;12.90;99.90
65692;DHT22;52411;52.716;6.696;2022-10-18T03:42:15;12.90;99.90
65692;DHT22;52411;52.716;6.696;2022-10-18T03:44:40;12.90;99.90
65692;DHT22;52411;52.716;6.696;2022-10-18T03:47:06;12.90;99.90
65692;DHT22;52411;52.716;6.696;2022-10-18T03:49:32;12.80;99.90
65692;DHT22;52411;52.716;6.696;2022-10-18T03:51:57;12.80;99.90
65692;DHT22;52411;52.716;6.696;2022-10-18T03:54:23;12.80;99.90
65692;DHT22;52411;52.716;6.696;2022-10-18T03:56:48;12.80;99.90
65692;DHT22;52411;52.716;6.696;2022-10-18T03:59:14;12.80;99.90
65692;DHT22;52411;52.716;6.696;2022-10-18T04:01:41;12.80;99.90
65692;DHT22;52411;52.716;6.696;2022-10-18T04:04:07;12.70;99.90
65692;DHT22;52411;52.716;6.696;2022-10-18T04:06:32;12.70;99.90
65692;DHT22;52411;52.716;6.696;2022-10-18T04:08:58;12.80;99.90
65692;DHT22;52411;52.716;6.696;2022-10-18T04:11:23;12.80;99.90
65692;DHT22;52411;52.716;6.696;2022-10-18T04:13:49;12.70;99.90
65692;DHT22;52411;52.716;6.696;2022-10-18T04:16:15;12.70;99.90
65692;DHT22;52411;52.716;6.696;2022-10-18T04:18:40;12.70;99.90
65692;DHT22;52411;52.716;6.696;2022-10-18T04:21:06;12.70;99.90
65692;DHT22;52411;52.716;6.696;2022-10-18T04:23:31;12.70;99.90
65692;DHT22;52411;52.716;6.696;2022-10-18T04:25:57;12.70;99.90
65692;DHT22;52411;52.716;6.696;2022-10-18T04:28:22;12.60;99.90
65692;DHT22;52411;52.716;6.696;2022-10-18T04:30:52;12.60;99.90
65692;DHT22;52411;52.716;6.696;2022-10-18T04:33:18;12.50;99.90
65692;DHT22;52411;52.716;6.696;2022-10-18T04:35:45;12.60;99.90
65692;DHT22;52411;52.716;6.696;2022-10-18T04:38:10;12.50;99.90
65692;DHT22;52411;52.716;6.696;2022-10-18T04:40:36;12.60;99.90
65692;DHT22;52411;52.716;6.696;2022-10-18T04:43:02;12.60;99.90
65692;DHT22;52411;52.716;6.696;2022-10-18T04:45:27;12.50;99.90
65692;DHT22;52411;52.716;6.696;2022-10-18T04:47:53;12.60;99.90
65692;DHT22;52411;52.716;6.696;2022-10-18T04:50:19;12.50;99.90
65692;DHT22;52411;52.716;6.696;2022-10-18T04:52:44;12.50;99.90
65692;DHT22;52411;52.716;6.696;2022-10-18T04:55:10;12.50;99.90
65692;DHT22;52411;52.716;6.696;2022-10-18T04:57:35;12.60;99.90
65692;DHT22;52411;52.716;6.696;2022-10-18T05:00:01;12.50;99.90
65692;DHT22;52411;52.716;6.696;2022-10-18T05:02:27;12.60;99.90
65692;DHT22;52411;52.716;6.696;2022-10-18T05:04:52;12.50;99.90
65692;DHT22;52411;52.716;6.696;2022-10-18T05:07:18;12.50;99.90
65692;DHT22;52411;52.716;6.696;2022-10-18T05:09:44;12.60;99.90
65692;DHT22;52411;52.716;6.696;2022-10-18T05:12:09;12.60;99.90
65692;DHT22;52411;52.716;6.696;2022-10-18T05:14:35;12.60;99.90
65692;DHT22;52411;52.716;6.696;2022-10-18T05:17:01;12.60;99.90
65692;DHT22;52411;52.716;6.696;2022-10-18T05:19:27;12.60;99.90
65692;DHT22;52411;52.716;6.696;2022-10-18T05:21:52;12.70;99.90
65692;DHT22;52411;52.716;6.696;2022-10-18T05:24:18;12.60;99.90
65692;DHT22;52411;52.716;6.696;2022-10-18T05:26:44;12.70;99.90
65692;DHT22;52411;52.716;6.696;2022-10-18T05:29:09;12.70;99.90
65692;DHT22;52411;52.716;6.696;2022-10-18T05:31:35;12.70;99.90
65692;DHT22;52411;52.716;6.696;2022-10-18T05:34:00;12.70;99.90
65692;DHT22;52411;52.716;6.696;2022-10-18T05:36:26;12.60;99.90
65692;DHT22;52411;52.716;6.696;2022-10-18T05:38:52;12.70;99.90
65692;DHT22;52411;52.716;6.696;2022-10-18T05:41:18;12.70;99.90
65692;DHT22;52411;52.716;6.696;2022-10-18T05:43:44;12.80;99.90
65692;DHT22;52411;52.716;6.696;2022-10-18T05:46:10;12.70;99.90
65692;DHT22;52411;52.716;6.696;2022-10-18T05:48:37;12.80;99.90
65692;DHT22;52411;52.716;6.696;2022-10-18T05:51:03;12.70;99.90
65692;DHT22;52411;52.716;6.696;2022-10-18T05:53:29;12.70;99.90
65692;DHT22;52411;52.716;6.696;2022-10-18T05:55:59;12.80;99.90
65692;DHT22;52411;52.716;6.696;2022-10-18T05:58:24;12.80;99.90
65692;DHT22;52411;52.716;6.696;2022-10-18T06:00:50;12.70;99.90
65692;DHT22;52411;52.716;6.696;2022-10-18T06:03:16;12.70;99.90
65692;DHT22;52411;52.716;6.696;2022-10-18T06:05:42;12.70;99.90
65692;DHT22;52411;52.716;6.696;2022-10-18T06:08:07;12.70;99.90
65692;DHT22;52411;52.716;6.696;2022-10-18T06:10:33;12.70;99.90
65692;DHT22;52411;52.716;6.696;2022-10-18T06:12:59;12.70;99.90
65692;DHT22;52411;52.716;6.696;2022-10-18T06:15:24;12.50;99.90
65692;DHT22;52411;52.716;6.696;2022-10-18T06:17:50;12.50;99.90
65692;DHT22;52411;52.716;6.696;2022-10-18T06:20:15;12.50;99.90
65692;DHT22;52411;52.716;6.696;2022-10-18T06:22:41;12.40;99.90
65692;DHT22;52411;52.716;6.696;2022-10-18T06:25:07;12.40;99.90
65692;DHT22;52411;52.716;6.696;2022-10-18T06:27:33;12.40;99.90
65692;DHT22;52411;52.716;6.696;2022-10-18T06:29:59;12.40;99.90
65692;DHT22;52411;52.716;6.696;2022-10-18T06:32:25;12.30;99.90
65692;DHT22;52411;52.716;6.696;2022-10-18T06:34:50;12.40;99.90
65692;DHT22;52411;52.716;6.696;2022-10-18T06:37:16;12.30;99.90
65692;DHT22;52411;52.716;6.696;2022-10-18T06:39:41;12.30;99.90
65692;DHT22;52411;52.716;6.696;2022-10-18T06:42:07;12.30;99.90
65692;DHT22;52411;52.716;6.696;2022-10-18T06:44:33;12.30;99.90
65692;DHT22;52411;52.716;6.696;2022-10-18T06:46:58;12.30;99.90
65692;DHT22;52411;52.716;6.696;2022-10-18T06:49:24;12.30;99.90
65692;DHT22;52411;52.716;6.696;2022-10-18T06:51:49;12.40;99.90
65692;DHT22;52411;52.716;6.696;2022-10-18T06:54:15;12.30;99.90
65692;DHT22;52411;52.716;6.696;2022-10-18T06:56:41;12.30;99.90
65692;DHT22;52411;52.716;6.696;2022-10-18T06:59:06;12.30;99.90
65692;DHT22;52411;52.716;6.696;2022-10-18T07:01:32;12.30;99.90
65692;DHT22;52411;52.716;6.696;2022-10-18T07:03:58;12.30;99.90
65692;DHT22;52411;52.716;6.696;2022-10-18T07:06:24;12.40;99.90
65692;DHT22;52411;52.716;6.696;2022-10-18T07:08:50;12.30;99.90
65692;DHT22;52411;52.716;6.696;2022-10-18T07:11:25;12.30;99.90
65692;DHT22;52411;52.716;6.696;2022-10-18T07:13:52;12.40;99.90
65692;DHT22;52411;52.716;6.696;2022-10-18T07:16:19;12.40;99.90
65692;DHT22;52411;52.716;6.696;2022-10-18T07:18:49;12.30;99.90
65692;DHT22;52411;52.716;6.696;2022-10-18T07:21:20;12.30;99.90
65692;DHT22;52411;52.716;6.696;2022-10-18T07:23:47;12.40;99.90
65692;DHT22;52411;52.716;6.696;2022-10-18T07:26:16;12.40;99.90
65692;DHT22;52411;52.716;6.696;2022-10-18T07:28:43;12.40;99.90
65692;DHT22;52411;52.716;6.696;2022-10-18T07:31:10;12.40;99.90
65692;DHT22;52411;52.716;6.696;2022-10-18T07:33:36;12.60;99.90
65692;DHT22;52411;52.716;6.696;2022-10-18T07:36:07;12.60;99.90
65692;DHT22;52411;52.716;6.696;2022-10-18T07:38:34;12.60;99.90
65692;DHT22;52411;52.716;6.696;2022-10-18T07:41:01;12.50;99.90
65692;DHT22;52411;52.716;6.696;2022-10-18T07:43:27;12.60;99.90
65692;DHT22;52411;52.716;6.696;2022-10-18T07:45:54;12.60;99.90
65692;DHT22;52411;52.716;6.696;2022-10-18T07:48:20;12.60;99.90
65692;DHT22;52411;52.716;6.696;2022-10-18T07:50:46;12.60;99.90
65692;DHT22;52411;52.716;6.696;2022-10-18T07:53:12;12.60;99.90
65692;DHT22;52411;52.716;6.696;2022-10-18T07:55:37;12.60;99.90
65692;DHT22;52411;52.716;6.696;2022-10-18T07:58:04;12.60;99.90
65692;DHT22;52411;52.716;6.696;2022-10-18T08:00:29;12.70;99.90
65692;DHT22;52411;52.716;6.696;2022-10-18T08:02:56;12.60;99.90
65692;DHT22;52411;52.716;6.696;2022-10-18T08:05:23;12.60;99.90
65692;DHT22;52411;52.716;6.696;2022-10-18T08:07:48;12.60;99.90
65692;DHT22;52411;52.716;6.696;2022-10-18T08:10:14;12.60;99.90
65692;DHT22;52411;52.716;6.696;2022-10-18T08:12:40;12.60;99.90
65692;DHT22;52411;52.716;6.696;2022-10-18T08:15:06;12.80;99.90
65692;DHT22;52411;52.716;6.696;2022-10-18T08:17:32;12.80;99.90
65692;DHT22;52411;52.716;6.696;2022-10-18T08:19:58;12.90;99.90
65692;DHT22;52411;52.716;6.696;2022-10-18T08:22:23;13.00;99.90
65692;DHT22;52411;52.716;6.696;2022-10-18T08:24:49;13.00;99.90
65692;DHT22;52411;52.716;6.696;2022-10-18T08:27:15;13.00;99.90
65692;DHT22;52411;52.716;6.696;2022-10-18T08:29:40;13.00;99.90
65692;DHT22;52411;52.716;6.696;2022-10-18T08:32:06;13.10;99.90
65692;DHT22;52411;52.716;6.696;2022-10-18T08:34:33;13.00;99.90
65692;DHT22;52411;52.716;6.696;2022-10-18T08:36:59;13.20;99.90
65692;DHT22;52411;52.716;6.696;2022-10-18T08:39:24;13.30;99.90
65692;DHT22;52411;52.716;6.696;2022-10-18T08:44:53;13.30;99.90
65692;DHT22;52411;52.716;6.696;2022-10-18T08:50:06;13.30;99.90
65692;DHT22;52411;52.716;6.696;2022-10-18T08:52:50;13.30;99.90
65692;DHT22;52411;52.716;6.696;2022-10-18T08:55:25;13.40;99.90
65692;DHT22;52411;52.716;6.696;2022-10-18T08:57:53;13.50;99.90
65692;DHT22;52411;52.716;6.696;2022-10-18T09:00:23;13.50;99.90
65692;DHT22;52411;52.716;6.696;2022-10-18T09:06:14;13.60;99.90
65692;DHT22;52411;52.716;6.696;2022-10-18T09:11:45;13.80;99.90
65692;DHT22;52411;52.716;6.696;2022-10-18T09:14:27;13.90;99.90
65692;DHT22;52411;52.716;6.696;2022-10-18T09:20:02;14.10;99.90
65692;DHT22;52411;52.716;6.696;2022-10-18T09:22:52;14.10;99.90
65692;DHT22;52411;52.716;6.696;2022-10-18T09:25:52;14.00;99.90
65692;DHT22;52411;52.716;6.696;2022-10-18T09:28:14;14.00;99.90
65692;DHT22;52411;52.716;6.696;2022-10-18T09:35:57;14.40;99.90
65692;DHT22;52411;52.716;6.696;2022-10-18T09:38:29;14.30;99.90
65692;DHT22;52411;52.716;6.696;2022-10-18T09:41:23;14.20;99.90
65692;DHT22;52411;52.716;6.696;2022-10-18T09:43:54;14.10;99.90
65692;DHT22;52411;52.716;6.696;2022-10-18T09:46:26;14.10;99.90
65692;DHT22;52411;52.716;6.696;2022-10-18T09:49:44;14.10;99.90
65692;DHT22;52411;52.716;6.696;2022-10-18T09:51:44;14.10;99.90
65692;DHT22;52411;52.716;6.696;2022-10-18T09:54:38;14.10;99.90
65692;DHT22;52411;52.716;6.696;2022-10-18T09:59:49;14.00;99.90
65692;DHT22;52411;52.716;6.696;2022-10-18T10:02:19;14.20;99.90
65692;DHT22;52411;52.716;6.696;2022-10-18T10:04:47;14.30;99.90
65692;DHT22;52411;52.716;6.696;2022-10-18T10:07:33;14.40;99.90
65692;DHT22;52411;52.716;6.696;2022-10-18T10:10:06;14.30;99.90
65692;DHT22;52411;52.716;6.696;2022-10-18T10:12:36;14.40;99.90
65692;DHT22;52411;52.716;6.696;2022-10-18T10:15:22;14.40;99.90
65692;DHT22;52411;52.716;6.696;2022-10-18T10:18:19;14.50;99.90
65692;DHT22;52411;52.716;6.696;2022-10-18T10:20:55;14.50;99.90
65692;DHT22;52411;52.716;6.696;2022-10-18T10:23:57;14.50;99.90
65692;DHT22;52411;52.716;6.696;2022-10-18T10:26:27;14.60;99.90
65692;DHT22;52411;52.716;6.696;2022-10-18T10:28:53;14.70;99.90
65692;DHT22;52411;52.716;6.696;2022-10-18T10:34:18;14.80;99.90
65692;DHT22;52411;52.716;6.696;2022-10-18T10:36:49;14.90;99.90
65692;DHT22;52411;52.716;6.696;2022-10-18T10:39:17;15.00;99.90
65692;DHT22;52411;52.716;6.696;2022-10-18T10:41:57;15.00;99.90
65692;DHT22;52411;52.716;6.696;2022-10-18T10:44:28;15.10;99.90
65692;DHT22;52411;52.716;6.696;2022-10-18T10:46:54;15.10;99.90
65692;DHT22;52411;52.716;6.696;2022-10-18T10:49:28;15.10;99.90
65692;DHT22;52411;52.716;6.696;2022-10-18T10:52:04;15.20;99.90
65692;DHT22;52411;52.716;6.696;2022-10-18T10:54:32;15.30;99.90
65692;DHT22;52411;52.716;6.696;2022-10-18T10:59:50;15.50;99.90
65692;DHT22;52411;52.716;6.696;2022-10-18T11:02:19;15.60;99.90
65692;DHT22;52411;52.716;6.696;2022-10-18T11:04:48;15.60;99.90
65692;DHT22;52411;52.716;6.696;2022-10-18T11:07:39;15.60;99.90
65692;DHT22;52411;52.716;6.696;2022-10-18T11:12:39;15.80;99.90
65692;DHT22;52411;52.716;6.696;2022-10-18T11:25:13;16.10;99.90
65692;DHT22;52411;52.716;6.696;2022-10-18T11:36:32;16.20;99.90
65692;DHT22;52411;52.716;6.696;2022-10-18T11:44:43;15.90;99.90
65692;DHT22;52411;52.716;6.696;2022-10-18T11:47:30;15.90;99.90
65692;DHT22;52411;52.716;6.696;2022-10-18T11:50:18;16.00;99.90
65692;DHT22;52411;52.716;6.696;2022-10-18T12:04:19;16.40;99.90
65692;DHT22;52411;52.716;6.696;2022-10-18T12:06:50;16.40;99.90
65692;DHT22;52411;52.716;6.696;2022-10-18T12:09:29;16.40;99.90
65692;DHT22;52411;52.716;6.696;2022-10-18T12:12:32;16.40;99.90
65692;DHT22;52411;52.716;6.696;2022-10-18T12:15:04;16.40;99.90
65692;DHT22;52411;52.716;6.696;2022-10-18T12:17:38;16.50;99.90
65692;DHT22;52411;52.716;6.696;2022-10-18T12:20:13;16.50;99.90
65692;DHT22;52411;52.716;6.696;2022-10-18T12:22:46;16.50;99.90
65692;DHT22;52411;52.716;6.696;2022-10-18T12:25:15;16.50;99.90
65692;DHT22;52411;52.716;6.696;2022-10-18T12:27:49;16.50;99.90
65692;DHT22;52411;52.716;6.696;2022-10-18T12:30:44;16.50;99.90
65692;DHT22;52411;52.716;6.696;2022-10-18T12:33:15;16.60;99.90
65692;DHT22;52411;52.716;6.696;2022-10-18T12:38:34;16.60;99.90
65692;DHT22;52411;52.716;6.696;2022-10-18T12:41:01;16.60;99.90
65692;DHT22;52411;52.716;6.696;2022-10-18T12:43:29;16.60;99.90
65692;DHT22;52411;52.716;6.696;2022-10-18T12:46:06;16.60;99.90
65692;DHT22;52411;52.716;6.696;2022-10-18T12:48:40;16.60;99.90
65692;DHT22;52411;52.716;6.696;2022-10-18T12:51:15;16.70;99.90
65692;DHT22;52411;52.716;6.696;2022-10-18T13:17:44;16.70;99.90
65692;DHT22;52411;52.716;6.696;2022-10-18T13:20:32;16.80;99.90
65692;DHT22;52411;52.716;6.696;2022-10-18T13:33:53;16.30;99.90
65692;DHT22;52411;52.716;6.696;2022-10-18T13:36:20;16.00;99.90
65692;DHT22;52411;52.716;6.696;2022-10-18T13:54:59;16.30;99.90
65692;DHT22;52411;52.716;6.696;2022-10-18T14:01:19;16.40;99.90
65692;DHT22;52411;52.716;6.696;2022-10-18T14:03:32;16.40;99.90
65692;DHT22;52411;52.716;6.696;2022-10-18T14:06:15;16.40;99.90
65692;DHT22;52411;52.716;6.696;2022-10-18T14:11:41;16.30;99.90
65692;DHT22;52411;52.716;6.696;2022-10-18T14:14:29;16.30;99.90
65692;DHT22;52411;52.716;6.696;2022-10-18T14:22:47;16.30;99.90
65692;DHT22;52411;52.716;6.696;2022-10-18T14:28:16;16.10;99.90
65692;DHT22;52411;52.716;6.696;2022-10-18T14:30:59;16.10;99.90
65692;DHT22;52411;52.716;6.696;2022-10-18T14:33:42;16.00;99.90
65692;DHT22;52411;52.716;6.696;2022-10-18T14:36:13;15.90;99.90
65692;DHT22;52411;52.716;6.696;2022-10-18T14:43:45;15.70;99.90
65692;DHT22;52411;52.716;6.696;2022-10-18T14:46:23;15.70;99.90
65692;DHT22;52411;52.716;6.696;2022-10-18T14:48:55;15.70;99.90
65692;DHT22;52411;52.716;6.696;2022-10-18T14:51:21;15.80;99.90
65692;DHT22;52411;52.716;6.696;2022-10-18T14:53:48;15.80;99.90
65692;DHT22;52411;52.716;6.696;2022-10-18T14:56:23;15.80;99.90
65692;DHT22;52411;52.716;6.696;2022-10-18T14:58:50;15.80;99.90
65692;DHT22;52411;52.716;6.696;2022-10-18T15:01:18;15.80;99.90
65692;DHT22;52411;52.716;6.696;2022-10-18T15:03:46;15.90;99.90
65692;DHT22;52411;52.716;6.696;2022-10-18T15:06:16;15.90;99.90
65692;DHT22;52411;52.716;6.696;2022-10-18T15:08:44;15.90;99.90
65692;DHT22;52411;52.716;6.696;2022-10-18T15:11:12;15.80;99.90
65692;DHT22;52411;52.716;6.696;2022-10-18T15:13:54;15.80;99.90
65692;DHT22;52411;52.716;6.696;2022-10-18T15:16:24;15.80;99.90
65692;DHT22;52411;52.716;6.696;2022-10-18T15:19:28;15.70;99.90
65692;DHT22;52411;52.716;6.696;2022-10-18T15:21:55;15.70;99.90
65692;DHT22;52411;52.716;6.696;2022-10-18T15:24:36;15.60;99.90
65692;DHT22;52411;52.716;6.696;2022-10-18T15:27:13;15.60;99.90
65692;DHT22;52411;52.716;6.696;2022-10-18T15:29:39;15.50;99.90
65692;DHT22;52411;52.716;6.696;2022-10-18T15:32:18;15.40;99.90
65692;DHT22;52411;52.716;6.696;2022-10-18T15:34:45;15.40;99.90
65692;DHT22;52411;52.716;6.696;2022-10-18T15:37:17;15.40;99.90
65692;DHT22;52411;52.716;6.696;2022-10-18T15:39:43;15.30;99.90
65692;DHT22;52411;52.716;6.696;2022-10-18T15:42:36;15.30;99.90
65692;DHT22;52411;52.716;6.696;2022-10-18T15:45:19;15.30;99.90
65692;DHT22;52411;52.716;6.696;2022-10-18T15:50:42;15.30;99.90
65692;DHT22;52411;52.716;6.696;2022-10-18T15:54:13;15.30;99.90
65692;DHT22;52411;52.716;6.696;2022-10-18T15:56:37;15.30;99.90
65692;DHT22;52411;52.716;6.696;2022-10-18T15:59:19;15.30;99.90
65692;DHT22;52411;52.716;6.696;2022-10-18T16:01:45;15.50;99.90
65692;DHT22;52411;52.716;6.696;2022-10-18T16:04:37;15.90;99.90
65692;DHT22;52411;52.716;6.696;2022-10-18T16:07:03;16.20;99.90
65692;DHT22;52411;52.716;6.696;2022-10-18T16:09:28;16.30;99.90
65692;DHT22;52411;52.716;6.696;2022-10-18T16:11:54;16.40;99.90
65692;DHT22;52411;52.716;6.696;2022-10-18T16:14:20;16.30;99.90
65692;DHT22;52411;52.716;6.696;2022-10-18T16:16:50;16.20;99.90
65692;DHT22;52411;52.716;6.696;2022-10-18T16:19:16;16.10;99.90
65692;DHT22;52411;52.716;6.696;2022-10-18T16:21:49;16.00;99.90
65692;DHT22;52411;52.716;6.696;2022-10-18T16:24:15;15.80;99.90
65692;DHT22;52411;52.716;6.696;2022-10-18T16:26:41;15.60;99.90
65692;DHT22;52411;52.716;6.696;2022-10-18T16:29:14;15.30;99.90
65692;DHT22;52411;52.716;6.696;2022-10-18T16:31:40;15.00;99.90
65692;DHT22;52411;52.716;6.696;2022-10-18T16:34:06;14.80;99.90
65692;DHT22;52411;52.716;6.696;2022-10-18T16:36:35;14.60;99.90
65692;DHT22;52411;52.716;6.696;2022-10-18T16:39:04;14.40;99.90
65692;DHT22;52411;52.716;6.696;2022-10-18T16:41:32;14.10;99.90
65692;DHT22;52411;52.716;6.696;2022-10-18T16:43:58;14.00;99.90
65692;DHT22;52411;52.716;6.696;2022-10-18T16:46:26;13.90;99.90
65692;DHT22;52411;52.716;6.696;2022-10-18T16:48:53;13.90;99.90
65692;DHT22;52411;52.716;6.696;2022-10-18T16:51:19;13.80;99.90
65692;DHT22;52411;52.716;6.696;2022-10-18T16:53:45;13.80;99.90
65692;DHT22;52411;52.716;6.696;2022-10-18T16:56:19;13.70;99.90
65692;DHT22;52411;52.716;6.696;2022-10-18T16:58:45;13.70;99.90
65692;DHT22;52411;52.716;6.696;2022-10-18T17:01:13;13.60;99.90
65692;DHT22;52411;52.716;6.696;2022-10-18T17:03:39;13.60;99.90
65692;DHT22;52411;52.716;6.696;2022-10-18T17:06:05;13.50;99.90
65692;DHT22;52411;52.716;6.696;2022-10-18T17:08:31;13.40;99.90
65692;DHT22;52411;52.716;6.696;2022-10-18T17:10:58;13.40;99.90
65692;DHT22;52411;52.716;6.696;2022-10-18T17:13:25;13.40;99.90
65692;DHT22;52411;52.716;6.696;2022-10-18T17:15:51;13.30;99.90
65692;DHT22;52411;52.716;6.696;2022-10-18T17:18:23;13.20;99.90
65692;DHT22;52411;52.716;6.696;2022-10-18T17:20:51;13.20;99.90
65692;DHT22;52411;52.716;6.696;2022-10-18T17:23:16;13.20;99.90
65692;DHT22;52411;52.716;6.696;2022-10-18T17:25:42;13.20;99.90
65692;DHT22;52411;52.716;6.696;2022-10-18T17:28:12;13.20;99.90
65692;DHT22;52411;52.716;6.696;2022-10-18T17:30:38;13.20;99.90
65692;DHT22;52411;52.716;6.696;2022-10-18T17:33:04;13.20;99.90
65692;DHT22;52411;52.716;6.696;2022-10-18T17:35:29;13.20;99.90
65692;DHT22;52411;52.716;6.696;2022-10-18T17:37:55;13.20;99.90
65692;DHT22;52411;52.716;6.696;2022-10-18T17:40:21;13.20;99.90
65692;DHT22;52411;52.716;6.696;2022-10-18T17:42:50;13.20;99.90
65692;DHT22;52411;52.716;6.696;2022-10-18T17:45:16;13.20;99.90
65692;DHT22;52411;52.716;6.696;2022-10-18T17:47:42;13.30;99.90
65692;DHT22;52411;52.716;6.696;2022-10-18T17:50:08;13.30;99.90
65692;DHT22;52411;52.716;6.696;2022-10-18T17:52:33;13.30;99.90
65692;DHT22;52411;52.716;6.696;2022-10-18T17:54:59;13.30;99.90
65692;DHT22;52411;52.716;6.696;2022-10-18T17:57:24;13.30;99.90
65692;DHT22;52411;52.716;6.696;2022-10-18T17:59:50;13.30;99.90
65692;DHT22;52411;52.716;6.696;2022-10-18T18:02:19;13.20;99.90
65692;DHT22;52411;52.716;6.696;2022-10-18T18:04:45;13.20;99.90
65692;DHT22;52411;52.716;6.696;2022-10-18T18:07:10;13.20;99.90
65692;DHT22;52411;52.716;6.696;2022-10-18T18:09:36;13.20;99.90
65692;DHT22;52411;52.716;6.696;2022-10-18T18:12:02;13.20;99.90
65692;DHT22;52411;52.716;6.696;2022-10-18T18:14:27;13.10;99.90
65692;DHT22;52411;52.716;6.696;2022-10-18T18:16:53;13.10;99.90
65692;DHT22;52411;52.716;6.696;2022-10-18T18:19:19;13.00;99.90
65692;DHT22;52411;52.716;6.696;2022-10-18T18:21:44;12.90;99.90
65692;DHT22;52411;52.716;6.696;2022-10-18T18:24:11;12.90;99.90
65692;DHT22;52411;52.716;6.696;2022-10-18T18:26:38;12.80;99.90
65692;DHT22;52411;52.716;6.696;2022-10-18T18:29:04;12.80;99.90